Time;durP1;ratioP1;P1;durP2;ratioP2;P2;SDS_P1;SDS_P2;PMS_P1;PMS_P2;Temp;Humidity;BMP_temperature;BMP_pressure;BME280_temperature;BME280_humidity;BME280_pressure;Samples;Min_cycle;Max_cycle;Signal;HPM_P1;HPM_P2
2024/03/26 00:14:21;;;;;;;149.70;38.10;;;;;;;3.85;92.91;99460.64;682880;1260;139802;-80
2024/03/26 00:29:23;;;;;;;131.00;41.00;;;;;;;3.60;92.61;99465.38;682956;1257;139804;-78
2024/03/26 00:44:25;;;;;;;103.90;38.80;;;;;;;3.65;92.36;99468.13;683008;1259;138940;-80
2024/03/26 00:59:27;;;;;;;85.10;31.50;;;;;;;3.51;91.75;99479.98;683083;1258;139270;-79
2024/03/26 01:14:29;;;;;;;76.70;31.20;;;;;;;3.45;91.71;99494.64;683051;1257;139411;-79
2024/03/26 01:29:31;;;;;;;90.30;35.10;;;;;;;3.41;91.54;99499.23;683064;1258;139395;-79
2024/03/26 01:44:33;;;;;;;66.70;26.50;;;;;;;3.19;91.75;99511.94;683054;1259;140131;-79
2024/03/26 01:59:35;;;;;;;74.80;25.50;;;;;;;3.27;92.31;99518.52;682955;1259;139719;-79
2024/03/26 02:14:37;;;;;;;62.00;26.00;;;;;;;3.30;92.48;99523.82;682963;1260;138869;-78
2024/03/26 02:29:39;;;;;;;64.00;26.40;;;;;;;3.32;92.24;99538.57;683051;1260;138968;-79
2024/03/26 02:44:41;;;;;;;45.70;22.30;;;;;;;3.36;92.34;99535.50;682841;1261;140645;-78
2024/03/26 02:59:42;;;;;;;50.70;23.20;;;;;;;3.38;92.63;99545.73;683044;1262;139399;-80
2024/03/26 03:14:44;;;;;;;58.80;25.40;;;;;;;3.48;93.08;99555.44;683152;1259;140305;-79
2024/03/26 03:29:46;;;;;;;44.70;20.90;;;;;;;3.32;92.14;99566.41;682784;1259;140444;-80
2024/03/26 03:44:48;;;;;;;47.90;22.30;;;;;;;3.18;92.12;99570.13;682786;1261;140395;-80
2024/03/26 03:59:50;;;;;;;66.90;20.80;;;;;;;3.09;92.37;99582.61;682923;1261;138990;-80
2024/03/26 04:14:52;;;;;;;49.40;22.50;;;;;;;2.97;93.35;99588.33;682941;1260;139675;-80
2024/03/26 04:29:54;;;;;;;50.40;20.70;;;;;;;3.01;93.99;99597.69;682863;1261;138840;-78
2024/03/26 04:44:56;;;;;;;46.30;20.70;;;;;;;3.07;94.50;99600.42;682734;1262;201771;-79
2024/03/26 04:59:58;;;;;;;47.40;22.40;;;;;;;3.20;94.30;99608.91;682976;1262;141622;-80
2024/03/26 05:15:00;;;;;;;51.70;22.60;;;;;;;3.27;94.51;99615.28;683000;1261;139259;-78
2024/03/26 05:30:03;;;;;;;56.40;22.80;;;;;;;3.33;94.14;99630.96;683124;1260;139828;-80
2024/03/26 05:45:05;;;;;;;61.10;25.40;;;;;;;3.44;94.31;99639.35;682838;1272;139379;-78
2024/03/26 06:00:08;;;;;;;131.70;44.20;;;;;;;3.69;94.36;99633.20;683087;1260;138584;-79
2024/03/26 06:15:10;;;;;;;105.60;34.80;;;;;;;3.94;94.63;99636.98;682940;1263;139502;-79
2024/03/26 06:30:13;;;;;;;78.80;26.20;;;;;;;4.08;95.52;99642.55;682956;1262;140763;-79
2024/03/26 06:45:14;;;;;;;438.30;124.40;;;;;;;4.45;96.09;99647.02;683171;1263;139618;-79
2024/03/26 07:00:17;;;;;;;156.80;50.70;;;;;;;5.12;96.96;99643.86;683250;1266;139269;-79
2024/03/26 07:15:20;;;;;;;94.50;44.90;;;;;;;5.67;97.28;99646.90;682920;1273;139802;-79
2024/03/26 07:30:23;;;;;;;92.00;38.20;;;;;;;5.76;99.61;99657.02;682978;1260;140851;-79
2024/03/26 07:45:25;;;;;;;84.20;37.50;;;;;;;6.98;99.95;99656.86;682808;1260;139976;-80
2024/03/26 08:00:28;;;;;;;77.90;38.10;;;;;;;8.09;99.82;99649.36;682935;1260;139177;-79
2024/03/26 08:15:29;;;;;;;47.50;26.40;;;;;;;11.85;97.51;99650.21;683208;1263;140837;-78
2024/03/26 08:30:32;;;;;;;23.30;12.40;;;;;;;13.83;92.74;99646.14;683007;1260;140081;-78
2024/03/26 08:45:39;;;;;;;20.80;12.50;;;;;;;14.18;80.15;99645.39;683033;1263;139379;-78
2024/03/26 09:00:40;;;;;;;30.90;16.80;;;;;;;14.93;75.88;99651.66;683136;1260;141099;-79
2024/03/26 09:15:43;;;;;;;26.20;14.70;;;;;;;15.48;70.36;99663.37;683062;1263;139423;-77
2024/03/26 09:30:51;;;;;;;20.20;14.20;;;;;;;15.13;67.77;99649.45;682842;1260;139806;-79
2024/03/26 09:45:56;;;;;;;14.20;7.30;;;;;;;14.86;66.29;99644.08;683003;1257;139164;-78
2024/03/26 10:01:00;;;;;;;24.20;10.90;;;;;;;14.49;62.50;99634.42;683222;1257;138413;-79
2024/03/26 10:16:03;;;;;;;29.30;16.00;;;;;;;14.55;62.17;99620.59;682968;1260;139182;-79
2024/03/26 10:31:05;;;;;;;17.00;9.40;;;;;;;14.12;62.96;99604.46;682931;1257;139588;-79
2024/03/26 10:46:08;;;;;;;29.10;14.70;;;;;;;14.72;61.28;99593.36;682864;1263;139156;-81
2024/03/26 11:01:11;;;;;;;20.00;10.90;;;;;;;14.73;60.74;99586.09;683119;1261;137578;-79
2024/03/26 11:16:40;;;;;;;21.10;14.40;;;;;;;14.60;60.93;99573.08;682802;1260;139138;-79
2024/03/26 11:31:44;;;;;;;20.00;14.10;;;;;;;14.30;60.87;99563.89;683089;1257;138516;-80
2024/03/26 11:46:48;;;;;;;24.10;15.00;;;;;;;14.66;59.93;99564.55;683125;1256;138439;-78
2024/03/26 12:01:51;;;;;;;18.40;10.30;;;;;;;14.58;61.40;99529.15;682964;1260;138525;-78
2024/03/26 12:16:53;;;;;;;14.60;9.90;;;;;;;13.95;60.76;99520.25;683069;1257;139149;-75
2024/03/26 12:31:57;;;;;;;23.50;12.90;;;;;;;14.03;61.45;99505.65;682942;1257;138507;-78
2024/03/26 12:46:59;;;;;;;21.20;13.00;;;;;;;13.93;60.73;99495.20;683052;1257;139887;-78
2024/03/26 13:02:02;;;;;;;14.80;10.00;;;;;;;14.47;59.06;99477.36;682843;1262;139637;-79
2024/03/26 13:17:04;;;;;;;14.70;8.80;;;;;;;13.88;58.96;99465.70;683115;1257;139711;-77
2024/03/26 13:32:06;;;;;;;19.70;13.70;;;;;;;13.88;58.21;99462.64;683040;1257;138410;-77
2024/03/26 13:47:09;;;;;;;25.70;15.80;;;;;;;14.22;58.27;99440.38;683083;1258;139568;-79
2024/03/26 14:02:12;;;;;;;50.20;29.50;;;;;;;13.86;59.51;99425.58;683047;1260;139826;-78
2024/03/26 14:17:14;;;;;;;15.90;10.50;;;;;;;13.23;59.88;99412.73;683369;1257;139475;-78
2024/03/26 14:32:17;;;;;;;32.10;15.30;;;;;;;13.54;60.38;99387.40;683156;1256;139912;-77
2024/03/26 14:47:20;;;;;;;109.20;65.10;;;;;;;13.97;60.31;99360.73;683145;1260;140000;-77
2024/03/26 15:02:23;;;;;;;25.40;14.20;;;;;;;13.80;58.17;99341.45;683163;1260;140176;-78
2024/03/26 15:17:26;;;;;;;16.30;8.70;;;;;;;13.63;56.31;99318.85;683288;1260;139913;-78
2024/03/26 15:32:28;;;;;;;18.10;10.70;;;;;;;13.41;58.40;99291.45;683148;1260;138759;-78
2024/03/26 15:47:31;;;;;;;25.50;12.70;;;;;;;13.26;58.44;99272.08;683021;1259;138841;-78
2024/03/26 16:02:34;;;;;;;152.50;86.40;;;;;;;12.74;58.30;99251.16;683159;1262;139211;-79
2024/03/26 16:17:40;;;;;;;90.40;40.40;;;;;;;12.43;58.78;99234.83;683127;1257;139026;-78
2024/03/26 16:32:50;;;;;;;69.10;34.70;;;;;;;11.83;60.37;99221.05;683029;1258;141252;-79
2024/03/26 16:47:52;;;;;;;35.50;17.00;;;;;;;11.28;61.52;99210.57;682804;1257;519131;-81
2024/03/26 17:02:55;;;;;;;36.60;21.40;;;;;;;11.44;61.40;99198.84;683068;1259;138029;-78
2024/03/26 17:17:57;;;;;;;66.80;29.50;;;;;;;11.73;60.52;99206.77;683357;1260;140434;-80
2024/03/26 17:32:59;;;;;;;87.00;32.20;;;;;;;11.37;61.31;99193.37;683098;1260;139979;-79
2024/03/26 17:48:03;;;;;;;99.40;33.10;;;;;;;11.06;62.25;99181.46;683187;1259;139444;-80
2024/03/26 18:03:05;;;;;;;70.60;28.90;;;;;;;10.88;62.61;99177.42;682972;1262;141041;-80
2024/03/26 18:18:34;;;;;;;154.60;52.60;;;;;;;10.64;64.42;99172.61;683075;1262;140972;-79
2024/03/26 18:33:37;;;;;;;54.00;22.70;;;;;;;10.50;65.45;99183.37;682900;1256;139223;-80
2024/03/26 18:48:40;;;;;;;91.70;34.30;;;;;;;10.38;66.31;99180.09;683139;1260;139524;-80
2024/03/26 19:03:48;;;;;;;65.60;28.60;;;;;;;10.38;67.82;99177.45;682988;1260;139559;-79
2024/03/26 19:18:50;;;;;;;55.50;21.50;;;;;;;10.33;68.47;99184.90;683199;1269;139711;-79
2024/03/26 19:33:53;;;;;;;48.80;20.80;;;;;;;10.29;69.23;99182.39;682883;1260;139004;-79
2024/03/26 19:48:55;;;;;;;40.10;18.40;;;;;;;10.39;68.56;99171.02;683031;1262;140182;-79
2024/03/26 20:03:58;;;;;;;39.10;15.60;;;;;;;10.28;68.49;99163.06;683070;1256;139016;-80
2024/03/26 20:19:01;;;;;;;52.10;23.40;;;;;;;10.19;68.63;99159.97;683142;1263;138937;-77
2024/03/26 20:34:03;;;;;;;68.70;25.30;;;;;;;10.08;68.90;99158.48;683039;1261;140420;-79
2024/03/26 20:49:06;;;;;;;24.40;12.80;;;;;;;9.99;69.46;99151.88;682942;1261;140228;-79
2024/03/26 21:04:08;;;;;;;21.60;12.90;;;;;;;9.89;69.26;99146.10;682933;1260;139304;-79
2024/03/26 21:19:13;;;;;;;21.30;11.80;;;;;;;9.70;70.33;99128.15;683069;1263;139219;-80
2024/03/26 21:34:16;;;;;;;20.80;11.10;;;;;;;9.60;70.33;99112.40;682979;1261;138743;-79
2024/03/26 22:01:51;;;;;;;21.90;11.30;;;;;;;9.52;70.72;99091.43;648298;1304;545050;-80
2024/03/26 22:16:55;;;;;;;21.20;11.10;;;;;;;9.33;70.59;99075.52;665920;1276;138579;-79
2024/03/26 22:31:59;;;;;;;22.30;12.20;;;;;;;9.20;70.72;99061.88;665460;1277;138832;-80
2024/03/26 22:47:05;;;;;;;20.70;10.20;;;;;;;9.00;71.41;99038.72;668912;1263;138890;-78
2024/03/26 23:02:11;;;;;;;23.80;12.40;;;;;;;8.90;71.31;99024.91;669011;1265;139136;-79
2024/03/26 23:17:16;;;;;;;25.30;12.30;;;;;;;8.80;71.76;99013.77;669996;1280;138104;-80
2024/03/26 23:32:19;;;;;;;22.20;11.40;;;;;;;8.77;71.87;98999.56;673150;1269;138831;-78
2024/03/26 23:47:25;;;;;;;30.20;13.30;;;;;;;8.67;71.97;98979.83;675260;1268;140076;-78
